Winfield, Alabama
Current Conditions -  °F | °C
As of 6:56 AM on Tuesday 21 Oct 2014 (Local Time) from K1M4 Reporting Station
Clear Clear  
Wind Chill: 45°   Ceiling: Unl
Heat Index: 45°   Visibility: 10mi
Dew Point: 45°   Wind: 0mph
Humidity: 100%   Direction: NA
Pressure: 30.07"   Gusts: NA
Location:  33.93°N, 87.82°W
Report Text: K1M4 211156Z AUTO 00000KT 10SM CLR 07/07 A3007 RMK AO2 51007 T00720072 10083 20066 SLP194
Loading
Personal Weather Stations






























Interactive Weather Map
Tropical Storm Tracking
New forecast layout! Learn more

10-Day Weather Forecast

Advertisements
Track Severe Weather on mobile